createdAt,value
2023-04-22T00:02:09.897Z,100.00
2023-04-22T00:04:38.506Z,100.00
2023-04-22T00:07:06.715Z,100.00
2023-04-22T00:09:34.914Z,100.00
2023-04-22T00:12:03.104Z,100.00
2023-04-22T00:14:31.197Z,100.00
2023-04-22T00:16:59.345Z,100.00
2023-04-22T00:19:28.874Z,100.00
2023-04-22T00:21:57.008Z,100.00
2023-04-22T00:24:25.104Z,100.00
2023-04-22T00:26:53.130Z,100.00
2023-04-22T00:29:21.193Z,100.00
2023-04-22T00:31:49.242Z,100.00
2023-04-22T00:34:18.380Z,100.00
2023-04-22T00:36:47.850Z,100.00
2023-04-22T00:39:16.335Z,100.00
2023-04-22T00:41:44.603Z,100.00
2023-04-22T00:44:13.321Z,100.00
2023-04-22T00:46:41.723Z,100.00
2023-04-22T00:49:09.953Z,100.00
2023-04-22T00:51:38.107Z,100.00
2023-04-22T00:54:07.794Z,100.00
2023-04-22T00:56:37.638Z,100.00
2023-04-22T00:59:06.109Z,100.00
2023-04-22T01:01:34.916Z,100.00
2023-04-22T01:04:04.645Z,100.00
2023-04-22T01:06:33.536Z,100.00
2023-04-22T01:09:01.913Z,100.00
2023-04-22T01:11:31.405Z,100.00
2023-04-22T01:13:59.482Z,100.00
2023-04-22T01:16:29.588Z,100.00
2023-04-22T01:18:58.065Z,100.00
2023-04-22T01:21:27.983Z,100.00
2023-04-22T01:23:57.650Z,100.00
2023-04-22T01:26:25.787Z,100.00
2023-04-22T01:28:54.057Z,100.00
2023-04-22T01:31:22.216Z,100.00
2023-04-22T01:33:50.838Z,100.00
2023-04-22T01:36:19.337Z,100.00
2023-04-22T01:38:47.600Z,100.00
2023-04-22T01:41:17.942Z,100.00
2023-04-22T01:43:46.528Z,100.00
2023-04-22T01:46:14.669Z,100.00
2023-04-22T01:48:42.765Z,100.00
2023-04-22T01:51:10.936Z,100.00
2023-04-22T01:53:39.026Z,100.00
2023-04-22T01:56:07.708Z,100.00
2023-04-22T01:58:37.219Z,100.00
2023-04-22T02:01:05.337Z,100.00
2023-04-22T02:03:33.675Z,100.00
2023-04-22T02:06:01.935Z,100.00
2023-04-22T02:08:30.716Z,100.00
2023-04-22T02:11:00.534Z,100.00
2023-04-22T02:13:35.471Z,100.00
2023-04-22T02:16:05.589Z,100.00
2023-04-22T02:18:33.992Z,100.00
2023-04-22T02:21:02.198Z,100.00
2023-04-22T02:23:30.706Z,100.00
2023-04-22T02:25:58.809Z,100.00
2023-04-22T02:28:26.928Z,100.00
2023-04-22T02:30:55.027Z,100.00
2023-04-22T02:33:25.175Z,100.00
2023-04-22T02:35:53.322Z,100.00
2023-04-22T02:38:21.394Z,100.00
2023-04-22T02:40:49.496Z,100.00
2023-04-22T02:43:17.609Z,100.00
2023-04-22T02:45:45.698Z,100.00
2023-04-22T02:48:13.753Z,100.00
2023-04-22T02:50:43.243Z,100.00
2023-04-22T02:53:11.256Z,100.00
2023-04-22T02:55:41.182Z,100.00
2023-04-22T02:58:09.821Z,100.00
2023-04-22T03:00:38.098Z,100.00
2023-04-22T03:03:06.904Z,100.00
2023-04-22T03:05:35.068Z,100.00
2023-04-22T03:08:04.623Z,100.00
2023-04-22T03:10:33.524Z,100.00
2023-04-22T03:13:01.612Z,100.00
2023-04-22T03:15:29.675Z,100.00
2023-04-22T03:17:58.054Z,100.00
2023-04-22T03:20:26.184Z,100.00
2023-04-22T03:22:54.278Z,100.00
2023-04-22T03:25:23.813Z,100.00
2023-04-22T03:27:51.956Z,100.00
2023-04-22T03:30:20.156Z,100.00
2023-04-22T03:32:48.353Z,100.00
2023-04-22T03:35:16.540Z,100.00
2023-04-22T03:37:44.745Z,100.00
2023-04-22T03:40:13.802Z,100.00
2023-04-22T03:42:43.620Z,100.00
2023-04-22T03:45:12.292Z,100.00
2023-04-22T03:47:40.414Z,100.00
2023-04-22T03:50:08.938Z,100.00
2023-04-22T03:52:37.002Z,100.00
2023-04-22T03:55:05.588Z,100.00
2023-04-22T03:57:33.621Z,100.00
2023-04-22T04:00:07.505Z,100.00
2023-04-22T04:02:39.898Z,100.00
2023-04-22T04:05:09.570Z,100.00
2023-04-22T04:07:40.472Z,100.00
2023-04-22T04:10:09.820Z,100.00
2023-04-22T04:12:37.926Z,100.00
2023-04-22T04:15:08.984Z,100.00
2023-04-22T04:17:37.179Z,100.00
2023-04-22T04:20:05.788Z,100.00
2023-04-22T04:22:35.404Z,100.00
2023-04-22T04:25:03.627Z,100.00
2023-04-22T04:27:31.673Z,100.00
2023-04-22T04:29:59.711Z,100.00
2023-04-22T04:32:29.304Z,100.00
2023-04-22T04:34:57.796Z,97.48
2023-04-22T04:37:26.443Z,90.25
2023-04-22T04:39:54.842Z,83.53
2023-04-22T04:42:24.622Z,88.22
2023-04-22T04:44:53.659Z,88.65
2023-04-22T04:47:22.834Z,89.09
2023-04-22T04:49:53.931Z,93.26
2023-04-22T04:52:22.057Z,92.25
2023-04-22T04:54:50.229Z,100.00
2023-04-22T04:57:18.314Z,100.00
2023-04-22T04:59:46.404Z,100.00
2023-04-22T05:02:14.573Z,100.00
2023-04-22T05:04:42.825Z,100.00
2023-04-22T05:07:12.540Z,96.30
2023-04-22T05:09:41.080Z,91.59
2023-04-22T05:12:09.587Z,80.78
2023-04-22T05:14:37.671Z,69.47
2023-04-22T05:17:05.778Z,66.15
2023-04-22T05:19:33.939Z,68.36
2023-04-22T05:22:02.115Z,67.94
2023-04-22T05:24:31.600Z,66.97
2023-04-22T05:27:00.120Z,66.16
2023-04-22T05:29:28.744Z,59.95
2023-04-22T05:31:56.805Z,56.83
2023-04-22T05:34:25.035Z,57.81
2023-04-22T05:36:53.153Z,55.10
2023-04-22T05:39:21.585Z,52.78
2023-04-22T05:41:51.283Z,54.74
2023-04-22T05:44:19.350Z,52.94
2023-04-22T05:46:47.865Z,53.36
2023-04-22T05:49:15.975Z,52.51
2023-04-22T05:51:44.090Z,50.72
2023-04-22T05:54:12.283Z,48.05
2023-04-22T05:56:40.784Z,47.33
2023-04-22T05:59:10.311Z,46.33
2023-04-22T06:01:38.676Z,45.95
2023-04-22T06:04:07.326Z,47.68
2023-04-22T06:06:35.704Z,50.29
2023-04-22T06:09:03.854Z,51.72
2023-04-22T06:11:32.302Z,52.49
2023-04-22T06:14:00.509Z,53.59
2023-04-22T06:16:30.982Z,54.05
2023-04-22T06:18:59.073Z,55.09
2023-04-22T06:21:27.327Z,53.31
2023-04-22T06:23:56.186Z,54.06
2023-04-22T06:26:24.377Z,53.08
2023-04-22T06:28:52.674Z,51.31
2023-04-22T06:31:29.685Z,50.49
2023-04-22T06:34:02.621Z,50.14
2023-04-22T06:36:37.737Z,47.31
2023-04-22T06:39:06.631Z,46.97
2023-04-22T06:41:34.738Z,46.32
2023-04-22T06:44:03.243Z,46.72
2023-04-22T06:46:31.416Z,46.35
2023-04-22T06:49:01.113Z,44.89
2023-04-22T06:51:29.329Z,42.40
2023-04-22T06:53:58.462Z,41.16
2023-04-22T06:56:27.078Z,39.43
2023-04-22T06:58:55.169Z,40.64
2023-04-22T07:01:23.261Z,37.52
2023-04-22T07:03:51.626Z,36.86
2023-04-22T07:06:21.210Z,32.63
2023-04-22T07:08:49.437Z,32.10
2023-04-22T07:11:17.613Z,32.24
2023-04-22T07:13:46.695Z,31.63
2023-04-22T07:16:15.011Z,31.09
2023-04-22T07:18:43.090Z,33.32
2023-04-22T07:21:11.218Z,31.82
2023-04-22T07:23:41.154Z,32.05
2023-04-22T07:26:09.360Z,32.48
2023-04-22T07:28:37.846Z,33.30
2023-04-22T07:31:06.327Z,33.29
2023-04-22T07:33:34.488Z,33.66
2023-04-22T07:36:02.886Z,33.52
2023-04-22T07:38:31.008Z,33.73
2023-04-22T07:41:00.522Z,33.83
2023-04-22T07:43:28.620Z,35.79
2023-04-22T07:45:56.757Z,33.40
2023-04-22T07:48:24.919Z,33.10
2023-04-22T07:50:53.081Z,33.06
2023-04-22T07:53:21.182Z,33.90
2023-04-22T07:55:49.877Z,33.49
2023-04-22T07:58:19.716Z,32.36
2023-04-22T08:00:47.920Z,35.46
2023-04-22T08:03:16.569Z,33.84
2023-04-22T08:05:44.842Z,33.66
2023-04-22T08:08:12.993Z,34.65
2023-04-22T08:10:41.237Z,33.58
2023-04-22T08:13:09.300Z,35.02
2023-04-22T08:15:39.313Z,32.04
2023-04-22T08:18:07.688Z,34.07
2023-04-22T08:20:36.014Z,34.07
2023-04-22T08:23:07.757Z,34.89
2023-04-22T08:25:38.797Z,35.66
2023-04-22T08:28:09.595Z,34.62
2023-04-22T08:30:39.263Z,30.90
2023-04-22T08:33:07.818Z,32.26
2023-04-22T08:35:37.916Z,32.10
2023-04-22T08:38:06.112Z,33.00
2023-04-22T08:40:36.373Z,36.04
2023-04-22T08:43:04.737Z,33.31
2023-04-22T08:45:33.513Z,32.68
2023-04-22T08:48:05.094Z,33.58
2023-04-22T08:50:33.263Z,35.61
2023-04-22T08:53:01.479Z,34.63
2023-04-22T08:55:30.197Z,31.77
2023-04-22T08:58:00.435Z,33.77
2023-04-22T09:00:28.805Z,35.82
2023-04-22T09:02:59.140Z,33.20
2023-04-22T09:05:34.479Z,33.64
2023-04-22T09:08:03.577Z,33.61
2023-04-22T09:10:34.472Z,33.64
2023-04-22T09:13:04.715Z,33.57
2023-04-22T09:15:33.183Z,33.27
2023-04-22T09:18:01.581Z,34.40
2023-04-22T09:20:32.129Z,36.17
2023-04-22T09:23:05.182Z,33.62
2023-04-22T09:25:36.475Z,34.35
2023-04-22T09:28:04.618Z,35.62
2023-04-22T09:30:35.047Z,34.64
2023-04-22T09:33:04.804Z,33.91
2023-04-22T09:35:40.083Z,34.81
2023-04-22T09:38:09.440Z,34.50
2023-04-22T09:40:39.648Z,33.03
2023-04-22T09:43:09.696Z,33.40
2023-04-22T09:45:39.461Z,33.60
2023-04-22T09:48:09.709Z,33.11
2023-04-22T09:50:41.551Z,35.65
2023-04-22T09:53:12.047Z,34.27
2023-04-22T09:55:42.877Z,33.38
2023-04-22T09:58:12.980Z,32.64
2023-04-22T10:00:43.334Z,32.82
2023-04-22T10:03:11.699Z,33.30
2023-04-22T10:05:42.207Z,33.30
2023-04-22T10:08:11.658Z,33.03
2023-04-22T10:10:40.125Z,33.62
2023-04-22T10:13:08.822Z,35.61
2023-04-22T10:15:40.124Z,33.57
2023-04-22T10:18:11.472Z,34.23
2023-04-22T10:20:43.458Z,33.29
2023-04-22T10:23:15.894Z,34.66
2023-04-22T10:25:43.979Z,33.24
2023-04-22T10:28:14.529Z,31.79
2023-04-22T10:30:42.589Z,32.20
2023-04-22T10:33:39.405Z,33.91
2023-04-22T10:36:11.447Z,32.36
2023-04-22T10:38:41.506Z,32.54
2023-04-22T10:41:15.468Z,31.59
2023-04-22T10:43:45.412Z,31.94
2023-04-22T10:46:56.131Z,32.12
2023-04-22T10:49:25.705Z,34.97
2023-04-22T10:51:58.501Z,33.55
2023-04-22T10:55:01.335Z,33.08
2023-04-22T10:57:37.860Z,34.23
2023-04-22T11:00:52.226Z,34.04
2023-04-22T11:03:28.910Z,34.45
2023-04-22T11:06:16.408Z,36.58
2023-04-22T11:08:47.814Z,34.01
2023-04-22T11:11:17.838Z,33.56
2023-04-22T11:13:47.591Z,33.98
2023-04-22T11:16:15.816Z,33.88
2023-04-22T11:18:48.070Z,34.48
2023-04-22T11:21:16.356Z,33.90
2023-04-22T11:23:53.345Z,32.82
2023-04-22T11:26:34.541Z,33.55
2023-04-22T11:29:02.649Z,33.01
2023-04-22T11:31:30.831Z,32.37
2023-04-22T11:34:00.464Z,33.38
2023-04-22T11:36:28.978Z,35.03
2023-04-22T11:38:58.487Z,34.37
2023-04-22T11:41:26.610Z,33.22
2023-04-22T11:43:55.720Z,32.92
2023-04-22T11:46:30.223Z,33.03
2023-04-22T11:49:13.133Z,32.36
2023-04-22T11:51:54.074Z,32.51
2023-04-22T11:54:36.382Z,31.57
2023-04-22T11:57:05.375Z,32.21
2023-04-22T11:59:33.538Z,32.38
2023-04-22T12:02:07.140Z,31.19
2023-04-22T12:04:38.058Z,31.30
2023-04-22T12:07:06.146Z,31.62
2023-04-22T12:09:36.220Z,31.82
2023-04-22T12:12:05.222Z,31.97
2023-04-22T12:14:34.563Z,32.02
2023-04-22T12:17:05.581Z,32.14
2023-04-22T12:19:34.194Z,32.18
2023-04-22T12:22:02.275Z,31.49
2023-04-22T12:24:31.377Z,31.62
2023-04-22T12:27:01.428Z,31.38
2023-04-22T12:29:32.637Z,30.96
2023-04-22T12:32:00.745Z,31.11
2023-04-22T12:34:28.796Z,31.01
2023-04-22T12:36:57.050Z,31.18
2023-04-22T12:39:25.101Z,31.38
2023-04-22T12:41:53.117Z,30.94
2023-04-22T12:44:25.055Z,30.14
2023-04-22T12:46:53.613Z,30.74
2023-04-22T12:49:21.908Z,31.50
2023-04-22T12:51:50.182Z,30.34
2023-04-22T12:54:19.606Z,32.29
2023-04-22T12:56:48.311Z,31.27
2023-04-22T12:59:16.596Z,31.53
2023-04-22T13:01:48.734Z,32.92
2023-04-22T13:04:16.709Z,31.33
2023-04-22T13:06:44.811Z,32.50
2023-04-22T13:09:13.100Z,31.63
2023-04-22T13:11:41.240Z,31.71
2023-04-22T13:14:09.361Z,33.16
2023-04-22T13:16:37.577Z,33.98
2023-04-22T13:19:07.757Z,33.60
2023-04-22T13:21:35.845Z,33.24
2023-04-22T13:24:04.374Z,33.37
2023-04-22T13:26:32.476Z,33.44
2023-04-22T13:29:02.679Z,33.50
2023-04-22T13:31:31.563Z,34.24
2023-04-22T13:33:59.662Z,33.20
2023-04-22T13:36:29.132Z,34.74
2023-04-22T13:38:58.350Z,34.07
2023-04-22T13:41:26.683Z,34.54
2023-04-22T13:43:56.186Z,33.01
2023-04-22T13:46:27.255Z,32.54
2023-04-22T13:48:56.877Z,33.59
2023-04-22T13:51:24.993Z,34.42
2023-04-22T13:53:54.486Z,35.51
2023-04-22T13:56:22.535Z,34.56
2023-04-22T13:58:51.046Z,35.30
2023-04-22T14:01:19.308Z,34.87
2023-04-22T14:03:48.095Z,33.99
2023-04-22T14:06:16.608Z,35.43
2023-04-22T14:08:45.071Z,34.27
2023-04-22T14:11:14.844Z,33.70
2023-04-22T14:13:43.156Z,34.83
2023-04-22T14:16:12.094Z,34.51
2023-04-22T14:18:41.081Z,34.42
2023-04-22T14:21:10.623Z,34.65
2023-04-22T14:23:39.130Z,35.08
2023-04-22T14:26:08.013Z,34.20
2023-04-22T14:28:38.144Z,34.30
2023-04-22T14:31:06.768Z,33.73
2023-04-22T14:33:35.081Z,33.42
2023-04-22T14:36:03.355Z,33.65
2023-04-22T14:38:31.441Z,33.22
2023-04-22T14:40:59.675Z,32.18
2023-04-22T14:43:27.845Z,32.22
2023-04-22T14:45:57.366Z,32.44
2023-04-22T14:48:30.131Z,33.57
2023-04-22T14:50:59.930Z,32.85
2023-04-22T14:53:28.081Z,34.05
2023-04-22T14:55:56.697Z,35.25
2023-04-22T14:58:25.478Z,32.85
2023-04-22T15:00:53.768Z,32.83
2023-04-22T15:03:23.589Z,33.08
2023-04-22T15:05:52.555Z,33.74
2023-04-22T15:08:20.757Z,33.74
2023-04-22T15:10:48.888Z,33.60
2023-04-22T15:13:17.019Z,35.72
2023-04-22T15:15:45.211Z,35.74
2023-04-22T15:18:13.348Z,36.80
2023-04-22T15:20:42.938Z,35.16
2023-04-22T15:23:11.030Z,36.92
2023-04-22T15:25:39.500Z,35.06
2023-04-22T15:28:07.582Z,35.36
2023-04-22T15:30:35.714Z,37.52
2023-04-22T15:33:04.970Z,33.16
2023-04-22T15:35:33.234Z,33.72
2023-04-22T15:38:03.105Z,33.50
2023-04-22T15:40:31.207Z,34.33
2023-04-22T15:42:59.340Z,35.29
2023-04-22T15:45:27.468Z,35.00
2023-04-22T15:47:56.645Z,34.23
2023-04-22T15:50:25.174Z,34.89
2023-04-22T15:52:54.250Z,35.97
2023-04-22T15:55:24.099Z,36.67
2023-04-22T15:57:52.200Z,36.66
2023-04-22T16:00:20.596Z,36.05
2023-04-22T16:02:55.314Z,36.45
2023-04-22T16:05:25.179Z,36.49
2023-04-22T16:07:53.573Z,37.04
2023-04-22T16:10:26.372Z,37.34
2023-04-22T16:12:54.446Z,36.82
2023-04-22T16:15:25.917Z,36.10
2023-04-22T16:17:54.191Z,37.20
2023-04-22T16:20:22.524Z,37.16
2023-04-22T16:22:50.591Z,37.40
2023-04-22T16:25:18.870Z,36.90
2023-04-22T16:27:48.375Z,36.80
2023-04-22T16:30:16.748Z,36.43
2023-04-22T16:32:44.857Z,37.01
2023-04-22T16:35:13.066Z,37.76
2023-04-22T16:37:41.140Z,37.88
2023-04-22T16:40:10.116Z,37.45
2023-04-22T16:42:38.144Z,37.25
2023-04-22T16:45:08.683Z,37.55
2023-04-22T16:47:36.882Z,37.67
2023-04-22T16:50:05.592Z,37.38
2023-04-22T16:52:33.669Z,36.48
2023-04-22T16:55:01.743Z,36.35
2023-04-22T16:57:29.890Z,36.85
2023-04-22T16:59:58.138Z,37.63
2023-04-22T17:02:27.917Z,37.89
2023-04-22T17:04:56.066Z,38.42
2023-04-22T17:07:24.077Z,38.36
2023-04-22T17:09:52.302Z,38.79
2023-04-22T17:12:20.530Z,38.73
2023-04-22T17:14:48.646Z,38.90
2023-04-22T17:17:16.687Z,39.52
2023-04-22T17:19:46.198Z,39.59
2023-04-22T17:22:14.273Z,40.03
2023-04-22T17:24:42.480Z,40.21
2023-04-22T17:27:10.779Z,40.52
2023-04-22T17:29:38.947Z,40.34
2023-04-22T17:32:07.486Z,40.73
2023-04-22T17:34:35.587Z,40.96
2023-04-22T17:37:05.040Z,42.67
2023-04-22T17:39:33.249Z,42.78
2023-04-22T17:42:01.875Z,42.38
2023-04-22T17:44:31.231Z,42.42
2023-04-22T17:46:59.481Z,42.53
2023-04-22T17:49:27.821Z,42.75
2023-04-22T17:51:56.434Z,43.08
2023-04-22T17:54:26.155Z,43.41
2023-04-22T17:56:54.336Z,44.39
2023-04-22T17:59:22.541Z,44.98
2023-04-22T18:01:50.791Z,45.43
2023-04-22T18:04:18.967Z,46.59
2023-04-22T18:06:47.182Z,47.82
2023-04-22T18:09:15.305Z,48.47
2023-04-22T18:11:44.866Z,49.61
2023-04-22T18:14:13.105Z,50.67
2023-04-22T18:16:41.329Z,52.09
2023-04-22T18:19:09.702Z,53.69
2023-04-22T18:21:41.553Z,54.62
2023-04-22T18:24:14.818Z,55.12
2023-04-22T18:26:47.160Z,55.54
2023-04-22T18:29:15.330Z,57.40
2023-04-22T18:31:43.622Z,58.53
2023-04-22T18:34:13.601Z,59.95
2023-04-22T18:36:42.051Z,62.11
2023-04-22T18:39:10.269Z,65.62
2023-04-22T18:41:39.622Z,66.49
2023-04-22T18:44:11.872Z,67.42
2023-04-22T18:46:39.957Z,67.19
2023-04-22T18:49:08.077Z,69.30
2023-04-22T18:51:36.259Z,69.48
2023-04-22T18:54:04.621Z,70.44
2023-04-22T18:56:33.506Z,69.69
2023-04-22T18:59:01.568Z,70.08
2023-04-22T19:01:31.899Z,70.61
2023-04-22T19:04:41.848Z,70.97
2023-04-22T19:07:15.285Z,73.23
2023-04-22T19:09:46.911Z,75.05
2023-04-22T19:12:17.045Z,76.80
2023-04-22T19:14:45.618Z,79.01
2023-04-22T19:17:15.279Z,76.46
2023-04-22T19:19:44.454Z,76.85
2023-04-22T19:22:13.583Z,78.33
2023-04-22T19:24:41.669Z,79.45
2023-04-22T19:27:12.835Z,79.19
2023-04-22T19:29:41.773Z,80.07
2023-04-22T19:32:11.068Z,81.83
2023-04-22T19:34:44.422Z,85.73
2023-04-22T19:37:12.628Z,86.57
2023-04-22T19:39:41.450Z,82.52
2023-04-22T19:42:10.501Z,84.54
2023-04-22T19:44:41.207Z,80.25
2023-04-22T19:47:13.738Z,80.69
2023-04-22T19:49:44.023Z,78.78
2023-04-22T19:52:15.807Z,80.11
2023-04-22T19:54:48.009Z,78.46
2023-04-22T19:57:16.804Z,80.21
2023-04-22T19:59:51.200Z,79.49
2023-04-22T20:02:21.600Z,70.78
2023-04-22T20:04:53.686Z,71.08
2023-04-22T20:07:23.921Z,67.40
2023-04-22T20:09:54.999Z,67.18
2023-04-22T20:12:23.479Z,68.45
2023-04-22T20:14:54.918Z,74.30
2023-04-22T20:17:23.493Z,70.58
2023-04-22T20:19:54.316Z,74.30
2023-04-22T20:22:25.372Z,75.33
2023-04-22T20:24:57.437Z,79.58
2023-04-22T20:27:26.080Z,82.92
2023-04-22T20:29:55.650Z,85.97
2023-04-22T20:32:23.927Z,79.40
2023-04-22T20:34:54.449Z,80.72
2023-04-22T20:37:24.384Z,79.45
2023-04-22T20:39:53.876Z,77.57
2023-04-22T20:42:23.111Z,81.52
2023-04-22T20:44:51.652Z,76.20
2023-04-22T20:47:19.788Z,77.38
2023-04-22T20:49:47.965Z,69.62
2023-04-22T20:52:17.737Z,65.37
2023-04-22T20:54:46.119Z,63.49
2023-04-22T20:57:14.453Z,61.30
2023-04-22T20:59:42.588Z,61.13
2023-04-22T21:02:11.573Z,60.63
2023-04-22T21:04:40.369Z,60.56
2023-04-22T21:07:12.010Z,60.00
2023-04-22T21:09:41.933Z,59.17
2023-04-22T21:12:11.217Z,58.87
2023-04-22T21:14:42.727Z,58.50
2023-04-22T21:17:19.704Z,59.11
2023-04-22T21:19:50.074Z,58.52
2023-04-22T21:22:21.282Z,58.95
2023-04-22T21:24:51.962Z,58.39
2023-04-22T21:27:21.490Z,58.72
2023-04-22T21:29:50.360Z,57.87
2023-04-22T21:32:20.429Z,58.37
2023-04-22T21:34:48.675Z,58.60
2023-04-22T21:37:17.026Z,58.77
2023-04-22T21:39:45.240Z,58.32
2023-04-22T21:42:14.799Z,58.33
2023-04-22T21:44:49.565Z,59.25
2023-04-22T21:47:17.783Z,59.43
2023-04-22T21:49:47.360Z,59.63
2023-04-22T21:52:15.531Z,59.82
2023-04-22T21:54:43.960Z,60.40
2023-04-22T21:57:12.591Z,60.08
2023-04-22T21:59:42.648Z,60.65
2023-04-22T22:02:11.496Z,60.73
2023-04-22T22:04:41.356Z,60.50
2023-04-22T22:07:09.884Z,61.19
2023-04-22T22:09:38.020Z,61.40
2023-04-22T22:12:07.942Z,61.98
2023-04-22T22:14:36.131Z,61.97
2023-04-22T22:17:08.563Z,62.02
2023-04-22T22:19:36.754Z,62.45
2023-04-22T22:22:05.389Z,63.20
2023-04-22T22:24:33.763Z,63.35
2023-04-22T22:27:02.035Z,64.12
2023-04-22T22:29:30.298Z,64.55
2023-04-22T22:31:58.392Z,65.57
2023-04-22T22:34:29.526Z,66.18
2023-04-22T22:36:57.806Z,67.49
2023-04-22T22:39:25.988Z,68.68
2023-04-22T22:41:55.473Z,70.86
2023-04-22T22:44:23.557Z,72.16
2023-04-22T22:46:51.765Z,74.22
2023-04-22T22:49:19.871Z,76.16
2023-04-22T22:51:49.406Z,78.65
2023-04-22T22:54:17.684Z,83.11
2023-04-22T22:56:46.116Z,81.51
2023-04-22T22:59:14.210Z,84.13
2023-04-22T23:01:42.383Z,83.33
2023-04-22T23:04:10.861Z,84.09
2023-04-22T23:06:39.129Z,84.52
2023-04-22T23:09:09.326Z,87.42
2023-04-22T23:11:37.464Z,89.59
2023-04-22T23:14:06.073Z,92.35
2023-04-22T23:16:34.311Z,95.38
2023-04-22T23:19:03.248Z,98.72
2023-04-22T23:21:33.292Z,100.00
2023-04-22T23:24:02.078Z,100.00
2023-04-22T23:26:32.210Z,100.00
2023-04-22T23:29:00.903Z,100.00
2023-04-22T23:31:31.268Z,100.00
2023-04-22T23:34:03.854Z,100.00
2023-04-22T23:36:33.841Z,100.00
2023-04-22T23:39:02.018Z,100.00
2023-04-22T23:41:31.591Z,100.00
2023-04-22T23:44:00.043Z,100.00
2023-04-22T23:46:28.389Z,100.00
2023-04-22T23:48:57.345Z,100.00
2023-04-22T23:51:28.962Z,100.00
2023-04-22T23:53:57.065Z,100.00
2023-04-22T23:56:26.249Z,100.00
2023-04-22T23:58:56.415Z,100.00
